Time;durP1;ratioP1;P1;durP2;ratioP2;P2;SDS_P1;SDS_P2;PMS_P1;PMS_P2;Temp;Humidity;BMP_temperature;BMP_pressure;BME280_temperature;BME280_humidity;BME280_pressure;Samples;Min_cycle;Max_cycle;Signal;HPM_P1;HPM_P2
2023/05/20 00:02:05;;;;;;;3.87;2.83;;;12.40;99.90;12.40;101434.00;;;;5003658;27;89316;-70
2023/05/20 00:04:31;;;;;;;4.33;2.33;;;12.40;99.90;12.40;101429.00;;;;5010078;27;87827;-70
2023/05/20 00:06:56;;;;;;;6.57;2.63;;;12.40;99.90;12.40;101433.00;;;;5009420;27;87999;-69
2023/05/20 00:09:22;;;;;;;4.10;3.70;;;12.40;99.90;12.40;101441.00;;;;5021907;27;88739;-71
2023/05/20 00:11:48;;;;;;;5.07;2.77;;;12.40;99.90;12.40;101432.00;;;;5004467;27;111209;-71
2023/05/20 00:14:13;;;;;;;3.10;2.77;;;12.40;99.90;12.40;101438.00;;;;5009696;27;104131;-72
2023/05/20 00:16:40;;;;;;;2.47;2.30;;;12.40;99.90;12.30;101436.00;;;;5008107;27;97829;-70
2023/05/20 00:19:06;;;;;;;4.47;3.67;;;12.30;99.90;12.30;101427.00;;;;5007303;27;117295;-71
2023/05/20 00:21:32;;;;;;;2.60;2.40;;;12.30;99.90;12.20;101420.00;;;;5013229;27;87919;-69
2023/05/20 00:23:58;;;;;;;4.63;3.13;;;12.30;99.90;12.20;101420.00;;;;5009413;27;87943;-70
2023/05/20 00:26:30;;;;;;;3.33;2.83;;;12.20;99.90;12.10;101422.00;;;;5005948;27;117571;-69
2023/05/20 00:28:56;;;;;;;6.13;2.80;;;12.30;99.90;12.10;101421.00;;;;5020134;27;88059;-70
2023/05/20 00:31:22;;;;;;;3.17;2.70;;;12.10;99.90;12.10;101421.00;;;;5009312;27;110998;-70
2023/05/20 00:33:47;;;;;;;4.33;2.93;;;12.10;99.90;12.10;101416.00;;;;5010773;27;87936;-69
2023/05/20 00:36:13;;;;;;;5.90;3.37;;;12.10;99.90;12.10;101417.00;;;;5007684;27;89349;-71
2023/05/20 00:38:39;;;;;;;5.40;3.70;;;12.00;99.90;12.10;101416.00;;;;5012328;27;115802;-70
2023/05/20 00:41:04;;;;;;;4.13;2.73;;;12.10;99.90;12.10;101420.00;;;;5013068;27;88030;-69
2023/05/20 00:43:30;;;;;;;4.27;3.37;;;12.10;99.90;12.20;101421.00;;;;5009988;27;93389;-69
2023/05/20 00:45:56;;;;;;;3.77;2.90;;;12.10;99.90;12.20;101421.00;;;;5009378;27;116120;-70
2023/05/20 00:48:21;;;;;;;5.53;3.20;;;12.20;99.90;12.30;101419.00;;;;5002980;27;116583;-69
2023/05/20 00:50:49;;;;;;;6.03;3.37;;;12.30;99.90;12.40;101421.00;;;;4988746;27;88871;-68
2023/05/20 00:53:21;;;;;;;5.03;3.53;;;12.40;99.90;12.50;101416.00;;;;4995659;27;87983;-71
2023/05/20 00:55:47;;;;;;;3.43;3.13;;;12.40;99.90;12.60;101416.00;;;;4996958;27;116001;-71
2023/05/20 00:58:13;;;;;;;5.10;3.33;;;12.50;99.90;12.60;101419.00;;;;4991002;27;117581;-69
2023/05/20 01:00:39;;;;;;;4.50;3.97;;;12.50;99.90;12.70;101404.00;;;;5008697;27;110226;-70
2023/05/20 01:03:05;;;;;;;9.60;3.03;;;12.60;99.90;12.80;101409.00;;;;5009955;27;88118;-69
2023/05/20 01:05:36;;;;;;;5.40;3.37;;;12.70;99.90;12.80;101399.00;;;;5018306;27;88087;-70
2023/05/20 01:08:02;;;;;;;4.17;3.67;;;12.70;99.90;12.80;101402.00;;;;4987346;27;116949;-69
2023/05/20 01:10:30;;;;;;;3.70;3.20;;;12.80;99.90;12.80;101393.00;;;;4993656;27;109797;-69
2023/05/20 01:13:01;;;;;;;4.20;3.20;;;12.80;99.90;12.90;101395.00;;;;4997021;27;87995;-71
2023/05/20 01:15:28;;;;;;;3.50;2.93;;;12.80;99.90;12.90;101401.00;;;;4990116;27;89230;-71
2023/05/20 01:18:00;;;;;;;3.50;2.90;;;12.80;99.90;12.90;101397.00;;;;5007365;27;119603;-69
2023/05/20 01:20:31;;;;;;;4.13;2.80;;;12.90;99.90;13.00;101398.00;;;;4989786;27;87851;-69
2023/05/20 01:22:57;;;;;;;3.53;2.83;;;12.90;99.90;13.00;101397.00;;;;4995023;27;88098;-68
2023/05/20 01:25:23;;;;;;;4.43;3.20;;;12.90;99.90;13.00;101399.00;;;;5004344;27;100988;-72
2023/05/20 01:27:51;;;;;;;5.20;3.00;;;13.00;99.90;13.00;101392.00;;;;4987177;27;87930;-69
2023/05/20 01:30:18;;;;;;;3.80;2.90;;;13.00;99.90;13.00;101396.00;;;;5008090;27;87810;-69
2023/05/20 01:33:07;;;;;;;3.93;3.30;;;13.00;99.90;13.00;101398.00;;;;4994075;27;92104;-71
2023/05/20 01:35:34;;;;;;;3.50;2.87;;;13.00;99.90;13.00;101397.00;;;;5005895;27;92130;-71
2023/05/20 01:38:02;;;;;;;3.23;2.87;;;13.00;99.90;13.10;101403.00;;;;4992529;27;88918;-68
2023/05/20 01:40:28;;;;;;;5.33;2.77;;;13.00;99.90;13.10;101403.00;;;;4987444;27;88824;-69
2023/05/20 01:42:55;;;;;;;3.53;2.57;;;13.10;99.90;13.10;101400.00;;;;4992491;27;91457;-69
2023/05/20 01:45:23;;;;;;;2.57;1.97;;;13.10;99.90;13.20;101405.00;;;;5002204;27;117308;-68
2023/05/20 01:47:48;;;;;;;4.13;3.00;;;13.10;99.90;13.20;101399.00;;;;4986852;27;88164;-69
2023/05/20 01:50:14;;;;;;;3.60;2.60;;;13.10;99.90;13.20;101399.00;;;;4997197;27;88081;-70
2023/05/20 01:52:40;;;;;;;4.47;2.77;;;13.20;99.90;13.20;101400.00;;;;4986163;27;87869;-69
2023/05/20 01:55:06;;;;;;;3.97;3.17;;;13.20;99.90;13.20;101391.00;;;;4983720;27;116618;-68
2023/05/20 01:57:31;;;;;;;2.93;2.60;;;13.20;99.90;13.20;101402.00;;;;4985471;27;110373;-69
2023/05/20 01:59:57;;;;;;;4.97;3.97;;;13.20;99.90;13.20;101393.00;;;;4984710;27;110873;-70
2023/05/20 02:02:23;;;;;;;3.33;3.00;;;13.20;99.90;13.20;101401.00;;;;4982202;27;106888;-69
2023/05/20 02:04:50;;;;;;;7.17;4.17;;;13.20;99.90;13.20;101407.00;;;;4981948;27;118890;-68
2023/05/20 02:07:17;;;;;;;4.40;2.70;;;13.50;99.90;13.20;101406.00;;;;4989220;27;89141;-69
2023/05/20 02:09:43;;;;;;;3.33;2.90;;;13.10;99.90;13.10;101395.00;;;;4988265;28;87870;-69
2023/05/20 02:12:15;;;;;;;2.90;2.70;;;13.10;99.90;13.10;101408.00;;;;4983013;27;99044;-71
2023/05/20 02:14:42;;;;;;;5.03;3.03;;;13.10;99.90;13.10;101402.00;;;;4987192;27;88739;-68
2023/05/20 02:17:08;;;;;;;2.87;2.57;;;13.10;99.90;13.10;101401.00;;;;4983306;27;103646;-70
2023/05/20 02:19:33;;;;;;;3.67;3.27;;;13.10;99.90;13.10;101400.00;;;;4972621;27;87735;-69
2023/05/20 02:21:59;;;;;;;4.07;3.50;;;13.10;99.90;13.10;101401.00;;;;4986209;27;108001;-69
2023/05/20 02:24:25;;;;;;;5.63;3.97;;;13.00;99.90;13.00;101403.00;;;;4983348;27;117143;-70
2023/05/20 02:26:52;;;;;;;3.70;3.40;;;13.00;99.90;13.00;101399.00;;;;4983071;27;117809;-69
2023/05/20 02:29:20;;;;;;;5.80;3.97;;;13.00;99.90;13.00;101405.00;;;;4985358;27;88753;-70
2023/05/20 02:31:47;;;;;;;4.33;3.00;;;13.00;99.90;13.00;101399.00;;;;4983584;27;87747;-69
2023/05/20 02:34:16;;;;;;;3.93;3.03;;;13.00;99.90;13.00;101395.00;;;;4984687;27;88107;-69
2023/05/20 02:36:41;;;;;;;5.20;3.57;;;13.00;99.90;12.90;101398.00;;;;4962536;28;88407;-69
2023/05/20 02:39:07;;;;;;;5.63;3.80;;;12.90;99.90;12.90;101401.00;;;;4988399;27;109105;-69
2023/05/20 02:41:33;;;;;;;4.07;3.20;;;12.90;99.90;12.90;101399.00;;;;4989471;27;87772;-70
2023/05/20 02:43:59;;;;;;;3.90;3.07;;;12.90;99.90;12.90;101386.00;;;;4989218;27;96136;-69
2023/05/20 02:46:24;;;;;;;5.03;3.50;;;12.90;99.90;12.90;101392.00;;;;4986280;27;88605;-70
2023/05/20 02:48:50;;;;;;;4.57;3.37;;;12.90;99.90;12.80;101390.00;;;;4987215;27;110902;-69
2023/05/20 02:51:16;;;;;;;3.57;3.10;;;12.80;99.90;12.80;101397.00;;;;4990668;27;108866;-70
2023/05/20 02:53:41;;;;;;;6.97;3.53;;;12.80;99.90;12.80;101388.00;;;;4987991;27;118007;-69
2023/05/20 02:56:07;;;;;;;4.33;3.20;;;12.80;99.90;12.80;101400.00;;;;4987902;27;111673;-70
2023/05/20 02:58:34;;;;;;;2.93;2.73;;;12.80;99.90;12.80;101402.00;;;;4987825;27;87871;-68
2023/05/20 03:01:01;;;;;;;4.30;3.50;;;12.80;99.90;12.90;101394.00;;;;4989451;27;87905;-70
2023/05/20 03:03:26;;;;;;;4.77;3.33;;;12.80;99.90;12.90;101405.00;;;;4990843;27;110659;-69
2023/05/20 03:05:53;;;;;;;5.03;3.47;;;12.90;99.90;12.90;101398.00;;;;4987144;27;88459;-69
2023/05/20 03:08:21;;;;;;;6.40;3.93;;;12.90;99.90;12.90;101408.00;;;;4972685;27;110461;-70
2023/05/20 03:10:47;;;;;;;6.73;3.73;;;12.90;99.90;13.00;101413.00;;;;4975341;27;87042;-69
2023/05/20 03:13:14;;;;;;;5.63;4.33;;;12.90;99.90;13.00;101400.00;;;;4985736;27;98939;-69
2023/05/20 03:15:41;;;;;;;4.50;3.33;;;13.00;99.90;13.10;101400.00;;;;4989392;27;88485;-69
2023/05/20 03:18:07;;;;;;;4.30;2.93;;;13.00;99.90;13.10;101400.00;;;;4988678;27;88583;-69
2023/05/20 03:20:37;;;;;;;7.20;4.33;;;13.10;99.90;13.10;101405.00;;;;4988437;27;88132;-68
2023/05/20 03:23:03;;;;;;;3.87;3.50;;;13.10;99.90;13.20;101402.00;;;;4988931;27;88543;-71
2023/05/20 03:25:29;;;;;;;5.03;4.03;;;13.20;99.90;13.20;101398.00;;;;4989556;27;87788;-69
2023/05/20 03:27:57;;;;;;;3.70;3.37;;;13.20;99.90;13.30;101397.00;;;;4988656;27;99570;-68
2023/05/20 03:30:23;;;;;;;4.40;3.07;;;13.20;99.90;13.30;101402.00;;;;4988216;27;88006;-70
2023/05/20 03:32:48;;;;;;;4.80;3.40;;;13.20;99.90;13.30;101399.00;;;;4986558;27;100274;-68
2023/05/20 03:35:14;;;;;;;5.23;4.33;;;13.20;99.90;13.30;101400.00;;;;4986710;27;114106;-68
2023/05/20 03:37:40;;;;;;;3.67;3.17;;;13.10;99.90;13.30;101394.00;;;;4984947;27;99111;-70
2023/05/20 03:40:09;;;;;;;6.13;3.60;;;13.20;99.90;13.30;101394.00;;;;4986661;27;109743;-69
2023/05/20 03:42:35;;;;;;;5.93;4.07;;;13.30;99.90;13.30;101398.00;;;;4967662;28;89031;-70
2023/05/20 03:45:01;;;;;;;4.40;3.83;;;13.20;99.90;13.30;101379.00;;;;4985908;27;90730;-71
2023/05/20 03:47:27;;;;;;;6.47;3.87;;;13.30;99.90;13.30;101380.00;;;;4956029;27;88446;-69
2023/05/20 03:49:53;;;;;;;4.73;3.20;;;13.30;99.90;13.30;101373.00;;;;4976757;27;88018;-69
2023/05/20 03:52:19;;;;;;;4.90;3.50;;;13.30;99.90;13.40;101373.00;;;;5007430;27;88473;-69
2023/05/20 03:54:45;;;;;;;4.37;3.40;;;13.30;99.90;13.40;101377.00;;;;5009659;27;93848;-69
2023/05/20 03:57:11;;;;;;;4.17;3.73;;;13.30;99.90;13.40;101384.00;;;;5008865;27;87862;-70
2023/05/20 03:59:37;;;;;;;5.17;3.87;;;13.30;99.90;13.40;101369.00;;;;5003404;27;106532;-70
2023/05/20 04:02:03;;;;;;;6.97;3.87;;;13.30;99.90;13.40;101372.00;;;;4995512;27;94434;-70
2023/05/20 04:04:35;;;;;;;3.70;2.63;;;13.40;99.90;13.40;101389.00;;;;5007542;27;90814;-70
2023/05/20 04:07:02;;;;;;;6.40;3.53;;;13.40;99.90;13.50;101378.00;;;;5005613;27;110725;-71
2023/05/20 04:09:27;;;;;;;4.00;3.60;;;13.40;99.90;13.50;101367.00;;;;5007833;27;87694;-68
2023/05/20 04:11:53;;;;;;;6.07;4.10;;;13.50;99.90;13.50;101377.00;;;;5005623;27;102831;-69
2023/05/20 04:14:19;;;;;;;5.73;4.10;;;13.40;99.90;13.50;101386.00;;;;5008065;27;117100;-70
2023/05/20 04:16:44;;;;;;;9.30;4.00;;;13.50;99.90;13.60;101380.00;;;;5006819;27;108825;-69
2023/05/20 04:19:11;;;;;;;6.73;4.70;;;13.50;99.90;13.50;101372.00;;;;5006931;27;88167;-68
2023/05/20 04:21:37;;;;;;;6.70;4.33;;;13.50;99.90;13.60;101385.00;;;;5005758;27;90174;-70
2023/05/20 04:24:03;;;;;;;4.23;3.73;;;13.50;99.90;13.60;101379.00;;;;5004089;27;88578;-69
2023/05/20 04:26:29;;;;;;;3.97;3.57;;;13.50;99.90;13.60;101381.00;;;;5005822;27;102688;-71
2023/05/20 04:28:57;;;;;;;6.00;4.73;;;13.50;99.90;13.60;101378.00;;;;5007229;27;108841;-69
2023/05/20 04:31:25;;;;;;;7.53;5.23;;;13.60;99.90;13.60;101377.00;;;;4991200;27;91951;-70
2023/05/20 04:33:52;;;;;;;9.83;4.33;;;13.50;99.90;13.60;101365.00;;;;5006624;27;88682;-69
2023/05/20 04:36:18;;;;;;;6.17;3.97;;;13.50;99.90;13.60;101364.00;;;;5007321;27;88763;-70
2023/05/20 04:38:43;;;;;;;7.97;4.67;;;13.50;99.90;13.50;101369.00;;;;5006149;27;109215;-69
2023/05/20 04:41:09;;;;;;;7.77;4.90;;;13.40;99.90;13.50;101370.00;;;;5007810;27;87937;-71
2023/05/20 04:43:37;;;;;;;7.07;5.37;;;13.50;99.90;13.50;101381.00;;;;4966844;28;103928;-69
2023/05/20 04:46:06;;;;;;;5.90;5.13;;;13.50;99.90;13.60;101382.00;;;;5000433;27;87815;-70
2023/05/20 04:48:32;;;;;;;11.70;4.63;;;13.50;99.90;13.60;101372.00;;;;5003883;27;87200;-70
2023/05/20 04:50:58;;;;;;;10.53;4.87;;;13.50;99.90;13.60;101374.00;;;;4986930;27;88441;-70
2023/05/20 04:53:24;;;;;;;5.53;3.97;;;13.50;99.90;13.60;101372.00;;;;5002319;27;103554;-68
2023/05/20 04:55:53;;;;;;;9.87;5.40;;;13.50;99.90;13.60;101362.00;;;;5003240;27;88986;-69
2023/05/20 04:58:23;;;;;;;8.73;5.17;;;13.60;99.90;13.70;101361.00;;;;4999952;27;102109;-70
2023/05/20 05:00:50;;;;;;;6.37;5.23;;;13.60;99.90;13.70;101366.00;;;;5004402;27;88719;-72
2023/05/20 05:03:17;;;;;;;7.23;4.97;;;13.60;99.90;13.70;101366.00;;;;4988621;27;87929;-69
2023/05/20 05:05:43;;;;;;;8.57;5.67;;;13.70;99.90;13.70;101372.00;;;;5002922;27;108702;-71
2023/05/20 05:08:12;;;;;;;7.27;5.27;;;13.70;99.90;13.70;101376.00;;;;5001762;27;94407;-71
2023/05/20 05:10:39;;;;;;;8.43;4.27;;;13.70;99.90;13.70;101376.00;;;;5002531;27;88212;-71
2023/05/20 05:13:04;;;;;;;5.60;4.93;;;13.70;99.90;13.70;101378.00;;;;5000596;27;110473;-69
2023/05/20 05:15:30;;;;;;;6.17;4.90;;;13.70;99.90;13.70;101387.00;;;;5000661;27;110857;-70
2023/05/20 05:17:56;;;;;;;9.40;5.07;;;13.60;99.90;13.70;101387.00;;;;5001111;27;107893;-69
2023/05/20 05:20:22;;;;;;;5.77;5.07;;;13.60;99.90;13.70;101374.00;;;;5001881;27;110678;-70
2023/05/20 05:22:49;;;;;;;7.40;6.57;;;13.60;99.90;13.70;101376.00;;;;4986523;27;98765;-70
2023/05/20 05:25:15;;;;;;;7.67;5.57;;;13.60;99.90;13.70;101371.00;;;;5003243;27;87918;-71
2023/05/20 05:27:41;;;;;;;7.50;5.50;;;13.70;99.90;13.80;101377.00;;;;5001305;27;100311;-69
2023/05/20 05:30:08;;;;;;;10.97;5.83;;;13.70;99.90;13.80;101383.00;;;;4999420;27;88730;-69
2023/05/20 05:32:36;;;;;;;6.27;4.80;;;13.70;99.90;13.70;101378.00;;;;5004378;27;88963;-72
2023/05/20 05:35:02;;;;;;;8.03;4.93;;;13.70;99.90;13.70;101389.00;;;;4980230;27;87645;-70
2023/05/20 05:37:27;;;;;;;7.60;5.87;;;13.70;99.90;13.80;101372.00;;;;4985752;27;96824;-69
2023/05/20 05:39:53;;;;;;;5.23;4.67;;;13.70;99.90;13.80;101382.00;;;;4998595;27;118120;-71
2023/05/20 05:42:19;;;;;;;10.82;5.90;;;13.70;99.90;13.90;101392.00;;;;4999499;27;116570;-70
2023/05/20 05:44:44;;;;;;;7.57;5.47;;;13.80;99.90;14.00;101386.00;;;;5003048;27;110676;-69
2023/05/20 05:47:10;;;;;;;7.87;5.97;;;13.90;99.90;14.00;101406.00;;;;5002195;27;88142;-70
2023/05/20 05:49:36;;;;;;;11.57;6.90;;;13.90;99.90;14.00;101407.00;;;;4998578;27;87993;-70
2023/05/20 05:52:02;;;;;;;6.85;5.35;;;13.90;99.90;14.10;101394.00;;;;4982758;27;115977;-69
2023/05/20 05:54:27;;;;;;;12.47;7.20;;;14.00;99.90;14.10;101394.00;;;;5002640;27;87742;-71
2023/05/20 05:56:55;;;;;;;8.60;7.37;;;14.00;99.90;14.10;101386.00;;;;4989181;27;108516;-69
2023/05/20 05:59:21;;;;;;;11.53;6.80;;;14.00;99.90;14.20;101391.00;;;;5000032;27;89039;-70
2023/05/20 06:01:47;;;;;;;13.23;6.30;;;14.10;99.90;14.20;101391.00;;;;4998804;27;117320;-69
2023/05/20 06:04:13;;;;;;;9.53;6.67;;;14.10;99.90;14.30;101381.00;;;;5001317;27;104494;-69
2023/05/20 06:06:40;;;;;;;6.25;4.97;;;14.20;99.90;14.30;101372.00;;;;5001459;27;108832;-71
2023/05/20 06:09:06;;;;;;;8.60;5.60;;;14.20;99.90;14.30;101376.00;;;;4998366;27;109294;-69
2023/05/20 06:11:31;;;;;;;8.20;6.03;;;14.20;99.90;14.30;101379.00;;;;5000459;27;117703;-69
2023/05/20 06:13:57;;;;;;;15.93;8.23;;;14.20;99.90;14.30;101379.00;;;;5003636;27;109874;-69
2023/05/20 06:16:23;;;;;;;9.87;6.07;;;14.20;99.90;14.40;101381.00;;;;5001869;27;88920;-69
2023/05/20 06:18:49;;;;;;;8.23;5.57;;;14.30;99.90;14.40;101375.00;;;;5006258;27;117924;-70
2023/05/20 06:21:15;;;;;;;12.45;7.20;;;14.30;99.90;14.50;101374.00;;;;5001963;27;88793;-68
2023/05/20 06:23:41;;;;;;;7.70;6.13;;;14.30;99.90;14.50;101379.00;;;;5003259;27;87817;-70
2023/05/20 06:26:07;;;;;;;7.07;5.37;;;14.20;99.90;14.50;101367.00;;;;4991669;27;106906;-71
2023/05/20 06:28:32;;;;;;;10.27;6.55;;;14.40;99.90;14.60;101371.00;;;;4986224;27;94633;-71
2023/05/20 06:30:58;;;;;;;11.77;6.23;;;14.50;99.90;14.70;101370.00;;;;5000862;27;117280;-69
2023/05/20 06:33:25;;;;;;;10.13;7.15;;;14.50;99.90;14.70;101364.00;;;;5004208;27;108297;-71
2023/05/20 06:35:52;;;;;;;10.00;6.05;;;14.60;99.90;14.70;101364.00;;;;5005533;27;88132;-72
2023/05/20 06:38:18;;;;;;;8.60;5.93;;;14.60;99.90;14.70;101360.00;;;;5006597;27;88931;-69
2023/05/20 06:40:44;;;;;;;9.23;6.35;;;14.60;99.90;14.80;101366.00;;;;5005886;27;87947;-71
2023/05/20 06:43:10;;;;;;;10.98;7.90;;;14.70;99.90;14.80;101372.00;;;;5005370;27;101820;-69
2023/05/20 06:45:35;;;;;;;14.70;6.55;;;14.70;99.90;14.80;101363.00;;;;5005390;27;109453;-69
2023/05/20 06:48:01;;;;;;;7.28;5.70;;;14.70;99.90;14.80;101366.00;;;;5003076;27;117051;-69
2023/05/20 06:50:27;;;;;;;11.82;7.28;;;14.70;99.90;14.80;101351.00;;;;5002307;27;118241;-71
2023/05/20 06:52:53;;;;;;;9.63;6.97;;;14.70;99.90;14.90;101358.00;;;;5005492;27;87911;-70
2023/05/20 06:55:19;;;;;;;7.57;6.35;;;14.80;99.90;15.00;101357.00;;;;4985058;27;98267;-70
2023/05/20 06:57:44;;;;;;;9.73;6.50;;;14.90;99.90;15.00;101366.00;;;;4999612;27;117949;-69
2023/05/20 07:00:12;;;;;;;11.98;5.10;;;14.90;99.90;14.90;101365.00;;;;5003280;27;118477;-69
2023/05/20 07:02:38;;;;;;;10.85;5.95;;;14.90;99.90;14.90;101356.00;;;;5002344;27;88157;-69
2023/05/20 07:05:04;;;;;;;8.48;6.22;;;14.80;99.90;14.80;101357.00;;;;5001529;27;87972;-72
2023/05/20 07:07:30;;;;;;;10.20;6.70;;;14.70;99.90;14.80;101348.00;;;;5000767;27;99692;-71
2023/05/20 07:09:56;;;;;;;10.40;5.75;;;14.70;99.90;14.80;101344.00;;;;4983139;27;117280;-70
2023/05/20 07:12:22;;;;;;;9.82;5.40;;;14.70;99.90;14.80;101356.00;;;;4999448;27;101471;-69
2023/05/20 07:14:48;;;;;;;8.18;4.95;;;14.70;99.90;14.80;101345.00;;;;4990144;27;107231;-69
2023/05/20 07:17:13;;;;;;;7.57;5.78;;;14.70;99.90;14.80;101355.00;;;;4990904;27;117059;-69
2023/05/20 07:19:39;;;;;;;8.52;5.63;;;14.70;99.90;14.80;101341.00;;;;5002610;27;116434;-70
2023/05/20 07:22:05;;;;;;;8.18;5.60;;;14.70;99.90;14.90;101345.00;;;;5001777;27;108587;-70
2023/05/20 07:24:30;;;;;;;7.30;5.53;;;14.80;99.90;14.90;101339.00;;;;4998850;27;108756;-70
2023/05/20 07:26:56;;;;;;;10.27;5.90;;;14.80;99.90;14.90;101337.00;;;;4989993;27;88018;-71
2023/05/20 07:29:22;;;;;;;11.15;5.78;;;14.80;99.90;14.80;101338.00;;;;5003892;27;88052;-70
2023/05/20 07:31:47;;;;;;;7.93;5.95;;;14.80;99.90;14.80;101339.00;;;;5002401;27;104337;-70
2023/05/20 07:34:13;;;;;;;8.55;5.72;;;14.80;99.90;14.90;101335.00;;;;5000473;27;108615;-71
2023/05/20 07:36:39;;;;;;;9.63;5.95;;;14.80;99.90;14.90;101338.00;;;;5001850;27;118574;-70
2023/05/20 07:39:05;;;;;;;11.98;6.22;;;14.80;99.90;14.90;101340.00;;;;5001160;27;88060;-70
2023/05/20 07:41:31;;;;;;;8.32;6.25;;;14.80;99.90;14.90;101333.00;;;;5003499;27;87819;-70
2023/05/20 07:43:57;;;;;;;8.38;5.63;;;14.90;99.90;15.00;101339.00;;;;5003087;27;87838;-72
2023/05/20 07:46:22;;;;;;;11.63;6.13;;;14.90;99.90;15.10;101336.00;;;;5001222;27;117355;-72
2023/05/20 07:48:48;;;;;;;10.15;6.18;;;14.90;99.90;15.20;101343.00;;;;5003121;27;118365;-69
2023/05/20 07:51:14;;;;;;;7.20;5.50;;;15.00;99.90;15.20;101347.00;;;;5000928;27;87695;-70
2023/05/20 07:53:39;;;;;;;8.65;6.65;;;15.10;99.90;15.40;101348.00;;;;4978580;28;115412;-70
2023/05/20 07:56:05;;;;;;;8.80;5.60;;;15.10;99.90;15.50;101361.00;;;;4983717;28;118545;-71
2023/05/20 07:58:31;;;;;;;11.98;6.35;;;15.30;99.90;15.60;101352.00;;;;4983179;27;88075;-68
2023/05/20 08:00:57;;;;;;;6.82;4.78;;;15.40;99.90;15.60;101347.00;;;;4983282;28;109633;-69
2023/05/20 08:03:22;;;;;;;7.35;6.18;;;15.50;99.90;15.60;101340.00;;;;4980780;27;87388;-70
2023/05/20 08:05:48;;;;;;;10.40;6.65;;;15.50;99.90;15.70;101346.00;;;;4976938;27;88536;-71
2023/05/20 08:08:15;;;;;;;15.25;6.85;;;15.60;99.90;15.70;101349.00;;;;4993099;27;88685;-70
2023/05/20 08:10:40;;;;;;;9.32;5.78;;;15.60;99.90;15.70;101341.00;;;;4995241;27;92463;-70
2023/05/20 08:13:06;;;;;;;5.57;4.88;;;15.60;99.90;15.80;101341.00;;;;5002002;27;101778;-69
2023/05/20 08:15:32;;;;;;;8.25;5.10;;;15.70;99.90;15.90;101342.00;;;;5000115;27;118307;-70
2023/05/20 08:17:57;;;;;;;6.25;4.60;;;15.70;99.90;16.00;101339.00;;;;4999875;27;115557;-69
2023/05/20 08:20:25;;;;;;;7.65;5.03;;;15.90;99.90;16.10;101334.00;;;;5001919;27;111009;-70
2023/05/20 08:22:51;;;;;;;7.47;5.18;;;15.90;99.90;16.10;101335.00;;;;5001710;27;87949;-70
2023/05/20 08:25:17;;;;;;;12.52;6.53;;;16.00;99.90;16.20;101334.00;;;;4988745;27;92084;-70
2023/05/20 08:27:42;;;;;;;10.30;5.43;;;16.00;99.90;16.30;101319.00;;;;5002390;27;109314;-70
2023/05/20 08:30:09;;;;;;;9.80;5.82;;;16.10;99.90;16.40;101318.00;;;;5002118;27;87757;-70
2023/05/20 08:32:36;;;;;;;6.38;5.05;;;16.20;99.90;16.50;101311.00;;;;5000328;27;87980;-71
2023/05/20 08:35:03;;;;;;;8.20;5.15;;;16.30;99.90;16.60;101319.00;;;;5001285;27;88996;-70
2023/05/20 08:37:29;;;;;;;9.07;5.38;;;16.40;99.90;16.70;101311.00;;;;4985349;27;109236;-69
2023/05/20 08:39:55;;;;;;;6.90;5.57;;;16.50;99.90;16.80;101313.00;;;;5005805;27;110973;-69
2023/05/20 08:42:25;;;;;;;6.93;4.80;;;16.60;99.90;16.90;101319.00;;;;4989114;27;87923;-70
2023/05/20 08:44:53;;;;;;;5.90;5.30;;;16.70;99.90;17.00;101315.00;;;;5001696;27;89639;-71
2023/05/20 08:47:28;;;;;;;6.78;6.10;;;16.80;99.90;17.20;101315.00;;;;5003764;27;108709;-69
2023/05/20 08:49:53;;;;;;;8.27;5.50;;;16.90;99.90;17.20;101324.00;;;;4998486;27;109387;-70
2023/05/20 08:52:20;;;;;;;13.65;6.43;;;17.00;99.90;17.30;101308.00;;;;4989046;27;107369;-68
2023/05/20 08:54:49;;;;;;;8.60;5.13;;;17.10;99.90;17.30;101312.00;;;;5002003;27;88166;-69
2023/05/20 08:57:15;;;;;;;9.48;5.78;;;17.10;99.90;17.30;101311.00;;;;4984736;27;88052;-70
2023/05/20 08:59:48;;;;;;;6.30;4.97;;;17.10;99.90;17.40;101319.00;;;;5000743;27;100596;-69
2023/05/20 09:02:14;;;;;;;11.13;6.00;;;17.20;99.90;17.30;101314.00;;;;4986490;27;87945;-70
2023/05/20 09:04:40;;;;;;;9.20;5.85;;;17.20;99.90;17.30;101313.00;;;;5001886;27;88828;-69
2023/05/20 09:07:06;;;;;;;11.10;5.88;;;17.10;99.90;17.20;101301.00;;;;5001507;27;87783;-70
2023/05/20 09:09:34;;;;;;;10.55;7.05;;;17.10;99.90;17.30;101314.00;;;;5002115;27;87928;-71
2023/05/20 09:12:01;;;;;;;9.55;6.03;;;17.10;99.90;17.40;101309.00;;;;5001308;27;87754;-70
2023/05/20 09:14:31;;;;;;;11.38;5.88;;;17.10;99.90;17.40;101308.00;;;;4985800;27;88051;-70
2023/05/20 09:16:57;;;;;;;11.18;6.55;;;17.20;99.90;17.60;101309.00;;;;5000391;27;87865;-69
2023/05/20 09:19:23;;;;;;;8.80;4.93;;;17.30;99.90;17.70;101321.00;;;;5001587;27;87702;-70
2023/05/20 09:21:57;;;;;;;10.43;5.85;;;17.40;99.90;17.70;101312.00;;;;5003375;27;87842;-69
2023/05/20 09:24:24;;;;;;;9.18;5.00;;;17.50;99.90;17.80;101317.00;;;;5001223;27;89658;-69
2023/05/20 09:26:51;;;;;;;12.23;6.32;;;17.60;99.90;17.80;101310.00;;;;5003055;27;89753;-69
2023/05/20 09:29:18;;;;;;;9.13;5.85;;;17.60;99.90;17.90;101303.00;;;;5003943;27;88037;-69
2023/05/20 09:31:44;;;;;;;11.38;5.47;;;17.70;99.90;18.00;101308.00;;;;5002744;27;88051;-70
2023/05/20 09:34:10;;;;;;;8.52;6.18;;;17.80;99.90;18.10;101317.00;;;;5002431;27;89002;-69
2023/05/20 09:36:39;;;;;;;11.70;6.10;;;17.80;99.90;18.20;101306.00;;;;5000467;27;117591;-71
2023/05/20 09:39:09;;;;;;;7.00;5.65;;;17.90;99.90;18.30;101301.00;;;;4990356;27;88607;-70
2023/05/20 09:41:52;;;;;;;9.05;6.03;;;18.10;99.80;18.40;101306.00;;;;5002763;27;86975;-70
2023/05/20 09:44:18;;;;;;;8.95;5.05;;;18.10;99.50;18.50;101306.00;;;;4990349;27;88409;-70
2023/05/20 09:46:45;;;;;;;10.70;7.15;;;18.20;99.50;18.60;101302.00;;;;5004765;27;105672;-70
2023/05/20 09:49:13;;;;;;;10.25;5.57;;;18.40;99.20;18.70;101313.00;;;;5005060;27;90586;-70
2023/05/20 09:51:40;;;;;;;8.63;5.93;;;18.40;98.40;18.80;101307.00;;;;4973377;27;87923;-70
2023/05/20 09:54:07;;;;;;;10.52;6.72;;;18.50;98.30;18.80;101306.00;;;;5006321;27;87912;-69
2023/05/20 09:56:34;;;;;;;7.80;5.55;;;18.60;97.80;18.90;101303.00;;;;4988247;27;88076;-70
2023/05/20 09:59:02;;;;;;;8.10;5.05;;;18.60;97.80;19.00;101296.00;;;;4989828;27;87897;-71
2023/05/20 10:01:28;;;;;;;6.82;4.97;;;18.70;97.80;19.10;101298.00;;;;4992738;27;87776;-71
2023/05/20 10:03:54;;;;;;;8.88;5.82;;;18.90;97.50;19.30;101288.00;;;;5001645;27;88847;-70
2023/05/20 10:07:10;;;;;;;7.40;4.97;;;19.00;96.70;19.30;101280.00;;;;5004530;27;117456;-69
2023/05/20 10:10:05;;;;;;;9.85;6.95;;;19.10;95.90;19.30;101273.00;;;;4989890;27;87919;-71
2023/05/20 10:13:09;;;;;;;8.00;5.78;;;19.20;95.00;19.50;101267.00;;;;5001740;27;88460;-71
2023/05/20 10:15:56;;;;;;;8.57;5.47;;;19.20;95.50;19.80;101266.00;;;;5001464;27;89130;-71
2023/05/20 10:18:34;;;;;;;6.97;4.95;;;19.40;95.40;20.00;101280.00;;;;5006241;27;88888;-70
2023/05/20 10:21:00;;;;;;;5.88;4.80;;;19.60;94.70;20.30;101264.00;;;;5005291;27;88421;-70
2023/05/20 10:23:30;;;;;;;9.52;5.22;;;19.90;93.70;20.50;101260.00;;;;4999230;27;88246;-69
2023/05/20 10:25:57;;;;;;;6.25;4.93;;;20.10;93.20;20.70;101263.00;;;;5000864;27;117197;-68
2023/05/20 10:28:32;;;;;;;7.25;5.53;;;20.20;93.10;20.70;101274.00;;;;5003438;27;88037;-70
2023/05/20 10:30:59;;;;;;;10.15;5.63;;;20.40;92.30;20.80;101262.00;;;;5003951;27;87893;-71
2023/05/20 10:33:26;;;;;;;10.55;6.43;;;20.50;91.60;20.90;101247.00;;;;4989059;27;87336;-71
2023/05/20 10:35:54;;;;;;;6.90;5.32;;;20.60;91.70;21.20;101256.00;;;;4962975;27;88365;-69
2023/05/20 10:38:20;;;;;;;7.47;5.38;;;20.70;91.30;21.30;101255.00;;;;5003586;27;88488;-69
2023/05/20 10:40:46;;;;;;;14.07;6.10;;;20.90;90.90;21.50;101246.00;;;;5005537;27;88783;-71
2023/05/20 10:43:14;;;;;;;7.70;5.35;;;21.00;90.10;21.60;101257.00;;;;5001592;27;107465;-70